sensor_id;sensor_type;location;lat;lon;timestamp;P1;durP1;ratioP1;P2;durP2;ratioP2
74904;SDS011;63465;50.862;6.220;2023-11-18T00:00:22;17.43;;;9.30;;
74904;SDS011;63465;50.862;6.220;2023-11-18T00:02:48;17.23;;;9.70;;
74904;SDS011;63465;50.862;6.220;2023-11-18T00:05:14;17.40;;;9.70;;
74904;SDS011;63465;50.862;6.220;2023-11-18T00:07:39;17.07;;;9.07;;
74904;SDS011;63465;50.862;6.220;2023-11-18T00:10:05;16.00;;;9.20;;
74904;SDS011;63465;50.862;6.220;2023-11-18T00:12:31;26.33;;;10.37;;
74904;SDS011;63465;50.862;6.220;2023-11-18T00:14:59;18.20;;;9.83;;
74904;SDS011;63465;50.862;6.220;2023-11-18T00:17:24;17.70;;;10.00;;
74904;SDS011;63465;50.862;6.220;2023-11-18T00:19:50;19.23;;;9.43;;
74904;SDS011;63465;50.862;6.220;2023-11-18T00:22:15;16.30;;;8.97;;
74904;SDS011;63465;50.862;6.220;2023-11-18T00:24:40;16.53;;;9.83;;
74904;SDS011;63465;50.862;6.220;2023-11-18T00:27:05;22.00;;;10.57;;
74904;SDS011;63465;50.862;6.220;2023-11-18T00:29:34;21.47;;;11.00;;
74904;SDS011;63465;50.862;6.220;2023-11-18T00:32:00;17.30;;;10.53;;
74904;SDS011;63465;50.862;6.220;2023-11-18T00:34:26;22.60;;;10.53;;
74904;SDS011;63465;50.862;6.220;2023-11-18T00:36:51;16.60;;;9.47;;
74904;SDS011;63465;50.862;6.220;2023-11-18T00:39:17;16.80;;;9.50;;
74904;SDS011;63465;50.862;6.220;2023-11-18T00:41:42;19.30;;;10.87;;
74904;SDS011;63465;50.862;6.220;2023-11-18T00:44:07;16.00;;;9.43;;
74904;SDS011;63465;50.862;6.220;2023-11-18T00:46:33;19.60;;;11.30;;
74904;SDS011;63465;50.862;6.220;2023-11-18T00:49:00;21.80;;;10.60;;
74904;SDS011;63465;50.862;6.220;2023-11-18T00:51:26;21.20;;;11.00;;
74904;SDS011;63465;50.862;6.220;2023-11-18T00:53:52;21.43;;;12.10;;
74904;SDS011;63465;50.862;6.220;2023-11-18T00:56:19;21.27;;;10.83;;
74904;SDS011;63465;50.862;6.220;2023-11-18T00:58:48;25.10;;;11.17;;
74904;SDS011;63465;50.862;6.220;2023-11-18T01:01:14;16.53;;;9.30;;
74904;SDS011;63465;50.862;6.220;2023-11-18T01:03:43;21.37;;;10.37;;
74904;SDS011;63465;50.862;6.220;2023-11-18T01:06:09;20.10;;;10.83;;
74904;SDS011;63465;50.862;6.220;2023-11-18T01:08:34;18.00;;;9.67;;
74904;SDS011;63465;50.862;6.220;2023-11-18T01:10:59;23.03;;;10.93;;
74904;SDS011;63465;50.862;6.220;2023-11-18T01:13:25;19.30;;;11.20;;
74904;SDS011;63465;50.862;6.220;2023-11-18T01:15:51;22.80;;;10.37;;
74904;SDS011;63465;50.862;6.220;2023-11-18T01:18:17;18.53;;;10.30;;
74904;SDS011;63465;50.862;6.220;2023-11-18T01:20:43;22.13;;;9.97;;
74904;SDS011;63465;50.862;6.220;2023-11-18T01:23:08;16.53;;;9.07;;
74904;SDS011;63465;50.862;6.220;2023-11-18T01:25:34;19.47;;;9.60;;
74904;SDS011;63465;50.862;6.220;2023-11-18T01:27:59;20.60;;;9.50;;
74904;SDS011;63465;50.862;6.220;2023-11-18T01:30:25;18.87;;;9.90;;
74904;SDS011;63465;50.862;6.220;2023-11-18T01:32:51;18.17;;;10.43;;
74904;SDS011;63465;50.862;6.220;2023-11-18T01:35:17;17.30;;;10.10;;
74904;SDS011;63465;50.862;6.220;2023-11-18T01:37:42;17.27;;;9.50;;
74904;SDS011;63465;50.862;6.220;2023-11-18T01:40:09;20.20;;;9.90;;
74904;SDS011;63465;50.862;6.220;2023-11-18T01:42:38;17.30;;;9.10;;
74904;SDS011;63465;50.862;6.220;2023-11-18T01:45:06;17.73;;;9.40;;
74904;SDS011;63465;50.862;6.220;2023-11-18T01:47:36;16.80;;;9.30;;
74904;SDS011;63465;50.862;6.220;2023-11-18T01:50:02;15.87;;;8.60;;
74904;SDS011;63465;50.862;6.220;2023-11-18T01:52:31;22.47;;;11.70;;
74904;SDS011;63465;50.862;6.220;2023-11-18T01:54:56;23.57;;;10.40;;
74904;SDS011;63465;50.862;6.220;2023-11-18T01:57:22;13.83;;;8.60;;
74904;SDS011;63465;50.862;6.220;2023-11-18T01:59:47;20.27;;;9.57;;
74904;SDS011;63465;50.862;6.220;2023-11-18T02:02:13;16.30;;;9.43;;
74904;SDS011;63465;50.862;6.220;2023-11-18T02:04:38;22.23;;;10.73;;
74904;SDS011;63465;50.862;6.220;2023-11-18T02:07:04;19.40;;;9.00;;
74904;SDS011;63465;50.862;6.220;2023-11-18T02:09:34;15.30;;;9.10;;
74904;SDS011;63465;50.862;6.220;2023-11-18T02:14:49;24.03;;;9.73;;
74904;SDS011;63465;50.862;6.220;2023-11-18T02:17:17;19.90;;;9.23;;
74904;SDS011;63465;50.862;6.220;2023-11-18T02:19:49;13.00;;;8.43;;
74904;SDS011;63465;50.862;6.220;2023-11-18T02:22:17;13.87;;;8.23;;
74904;SDS011;63465;50.862;6.220;2023-11-18T02:24:42;18.77;;;8.50;;
74904;SDS011;63465;50.862;6.220;2023-11-18T02:27:08;13.33;;;8.17;;
74904;SDS011;63465;50.862;6.220;2023-11-18T02:29:37;16.30;;;8.63;;
74904;SDS011;63465;50.862;6.220;2023-11-18T02:35:09;22.00;;;7.30;;
74904;SDS011;63465;50.862;6.220;2023-11-18T02:37:46;13.17;;;7.50;;
74904;SDS011;63465;50.862;6.220;2023-11-18T02:40:20;19.37;;;8.50;;
74904;SDS011;63465;50.862;6.220;2023-11-18T02:42:55;20.77;;;7.97;;
74904;SDS011;63465;50.862;6.220;2023-11-18T02:45:22;14.70;;;8.33;;
74904;SDS011;63465;50.862;6.220;2023-11-18T02:47:49;12.77;;;7.60;;
74904;SDS011;63465;50.862;6.220;2023-11-18T02:50:14;12.67;;;7.20;;
74904;SDS011;63465;50.862;6.220;2023-11-18T02:52:40;15.23;;;7.90;;
74904;SDS011;63465;50.862;6.220;2023-11-18T02:55:07;14.03;;;7.00;;
74904;SDS011;63465;50.862;6.220;2023-11-18T02:57:34;12.70;;;6.97;;
74904;SDS011;63465;50.862;6.220;2023-11-18T02:59:59;17.10;;;7.30;;
74904;SDS011;63465;50.862;6.220;2023-11-18T03:02:28;14.87;;;7.00;;
74904;SDS011;63465;50.862;6.220;2023-11-18T03:04:55;11.03;;;6.80;;
74904;SDS011;63465;50.862;6.220;2023-11-18T03:07:21;12.10;;;6.80;;
74904;SDS011;63465;50.862;6.220;2023-11-18T03:09:46;15.23;;;7.80;;
74904;SDS011;63465;50.862;6.220;2023-11-18T03:12:12;8.50;;;5.53;;
74904;SDS011;63465;50.862;6.220;2023-11-18T03:14:37;14.93;;;6.93;;
74904;SDS011;63465;50.862;6.220;2023-11-18T03:17:03;10.47;;;6.70;;
74904;SDS011;63465;50.862;6.220;2023-11-18T03:19:31;9.87;;;6.00;;
74904;SDS011;63465;50.862;6.220;2023-11-18T03:21:58;12.40;;;7.13;;
74904;SDS011;63465;50.862;6.220;2023-11-18T03:24:24;11.40;;;6.10;;
74904;SDS011;63465;50.862;6.220;2023-11-18T03:26:50;10.23;;;6.10;;
74904;SDS011;63465;50.862;6.220;2023-11-18T03:29:15;9.63;;;6.33;;
74904;SDS011;63465;50.862;6.220;2023-11-18T03:31:41;12.37;;;5.90;;
74904;SDS011;63465;50.862;6.220;2023-11-18T03:34:09;10.03;;;6.20;;
74904;SDS011;63465;50.862;6.220;2023-11-18T03:36:34;11.20;;;6.47;;
74904;SDS011;63465;50.862;6.220;2023-11-18T03:39:00;10.40;;;6.60;;
74904;SDS011;63465;50.862;6.220;2023-11-18T03:41:26;14.40;;;7.30;;
74904;SDS011;63465;50.862;6.220;2023-11-18T03:43:52;7.97;;;5.50;;
74904;SDS011;63465;50.862;6.220;2023-11-18T03:46:17;9.47;;;5.70;;
74904;SDS011;63465;50.862;6.220;2023-11-18T03:48:43;10.70;;;5.90;;
74904;SDS011;63465;50.862;6.220;2023-11-18T03:51:09;9.77;;;5.73;;
74904;SDS011;63465;50.862;6.220;2023-11-18T03:53:35;13.50;;;6.67;;
74904;SDS011;63465;50.862;6.220;2023-11-18T03:56:00;9.83;;;5.30;;
74904;SDS011;63465;50.862;6.220;2023-11-18T03:58:27;8.50;;;5.77;;
74904;SDS011;63465;50.862;6.220;2023-11-18T04:00:52;9.10;;;5.30;;
74904;SDS011;63465;50.862;6.220;2023-11-18T04:03:18;9.80;;;5.80;;
74904;SDS011;63465;50.862;6.220;2023-11-18T04:05:44;6.67;;;5.23;;
74904;SDS011;63465;50.862;6.220;2023-11-18T04:08:09;9.33;;;5.77;;
74904;SDS011;63465;50.862;6.220;2023-11-18T04:10:34;9.07;;;5.70;;
74904;SDS011;63465;50.862;6.220;2023-11-18T04:13:00;9.43;;;5.60;;
74904;SDS011;63465;50.862;6.220;2023-11-18T04:15:25;8.57;;;5.87;;
74904;SDS011;63465;50.862;6.220;2023-11-18T04:17:51;8.70;;;4.80;;
74904;SDS011;63465;50.862;6.220;2023-11-18T04:20:17;9.70;;;4.90;;
74904;SDS011;63465;50.862;6.220;2023-11-18T04:22:43;9.60;;;4.50;;
74904;SDS011;63465;50.862;6.220;2023-11-18T04:25:09;8.60;;;5.27;;
74904;SDS011;63465;50.862;6.220;2023-11-18T04:27:35;7.30;;;5.30;;
74904;SDS011;63465;50.862;6.220;2023-11-18T04:30:02;9.60;;;5.40;;
74904;SDS011;63465;50.862;6.220;2023-11-18T04:32:27;11.40;;;6.00;;
74904;SDS011;63465;50.862;6.220;2023-11-18T04:34:52;7.83;;;5.43;;
74904;SDS011;63465;50.862;6.220;2023-11-18T04:37:18;13.20;;;6.20;;
74904;SDS011;63465;50.862;6.220;2023-11-18T04:39:43;7.70;;;5.90;;
74904;SDS011;63465;50.862;6.220;2023-11-18T04:42:08;10.93;;;5.23;;
74904;SDS011;63465;50.862;6.220;2023-11-18T04:44:34;6.60;;;5.20;;
74904;SDS011;63465;50.862;6.220;2023-11-18T04:46:59;6.00;;;4.83;;
74904;SDS011;63465;50.862;6.220;2023-11-18T04:49:26;7.57;;;5.20;;
74904;SDS011;63465;50.862;6.220;2023-11-18T04:51:51;8.93;;;5.50;;
74904;SDS011;63465;50.862;6.220;2023-11-18T04:54:16;8.90;;;4.97;;
74904;SDS011;63465;50.862;6.220;2023-11-18T04:56:42;10.80;;;5.27;;
74904;SDS011;63465;50.862;6.220;2023-11-18T04:59:07;8.10;;;5.43;;
74904;SDS011;63465;50.862;6.220;2023-11-18T05:01:32;9.17;;;5.60;;
74904;SDS011;63465;50.862;6.220;2023-11-18T05:03:58;8.33;;;5.20;;
74904;SDS011;63465;50.862;6.220;2023-11-18T05:06:24;8.83;;;5.67;;
74904;SDS011;63465;50.862;6.220;2023-11-18T05:08:50;8.00;;;5.53;;
74904;SDS011;63465;50.862;6.220;2023-11-18T05:11:16;7.60;;;5.53;;
74904;SDS011;63465;50.862;6.220;2023-11-18T05:13:41;9.73;;;5.63;;
74904;SDS011;63465;50.862;6.220;2023-11-18T05:16:07;8.00;;;5.00;;
74904;SDS011;63465;50.862;6.220;2023-11-18T05:18:32;7.30;;;5.07;;
74904;SDS011;63465;50.862;6.220;2023-11-18T05:21:01;7.43;;;4.90;;
74904;SDS011;63465;50.862;6.220;2023-11-18T05:23:28;6.83;;;5.50;;
74904;SDS011;63465;50.862;6.220;2023-11-18T05:25:54;10.33;;;4.87;;
74904;SDS011;63465;50.862;6.220;2023-11-18T05:28:21;6.23;;;4.63;;
74904;SDS011;63465;50.862;6.220;2023-11-18T05:30:47;8.03;;;4.57;;
74904;SDS011;63465;50.862;6.220;2023-11-18T05:33:12;14.07;;;4.77;;
74904;SDS011;63465;50.862;6.220;2023-11-18T05:35:42;6.90;;;4.70;;
74904;SDS011;63465;50.862;6.220;2023-11-18T05:38:13;8.03;;;4.70;;
74904;SDS011;63465;50.862;6.220;2023-11-18T05:40:44;10.20;;;4.60;;
74904;SDS011;63465;50.862;6.220;2023-11-18T05:43:20;7.53;;;4.43;;
74904;SDS011;63465;50.862;6.220;2023-11-18T05:45:46;5.70;;;4.40;;
74904;SDS011;63465;50.862;6.220;2023-11-18T05:48:32;7.07;;;4.20;;
74904;SDS011;63465;50.862;6.220;2023-11-18T05:50:57;7.83;;;4.33;;
74904;SDS011;63465;50.862;6.220;2023-11-18T05:53:22;6.10;;;4.77;;
74904;SDS011;63465;50.862;6.220;2023-11-18T05:55:47;14.93;;;5.30;;
74904;SDS011;63465;50.862;6.220;2023-11-18T05:58:13;7.97;;;4.30;;
74904;SDS011;63465;50.862;6.220;2023-11-18T06:00:38;9.40;;;5.10;;
74904;SDS011;63465;50.862;6.220;2023-11-18T06:03:03;7.83;;;5.10;;
74904;SDS011;63465;50.862;6.220;2023-11-18T06:05:29;8.53;;;4.90;;
74904;SDS011;63465;50.862;6.220;2023-11-18T06:07:59;10.53;;;4.37;;
74904;SDS011;63465;50.862;6.220;2023-11-18T06:10:25;6.23;;;4.37;;
74904;SDS011;63465;50.862;6.220;2023-11-18T06:12:50;11.20;;;4.87;;
74904;SDS011;63465;50.862;6.220;2023-11-18T06:15:16;9.23;;;4.83;;
74904;SDS011;63465;50.862;6.220;2023-11-18T06:17:43;11.77;;;5.37;;
74904;SDS011;63465;50.862;6.220;2023-11-18T06:20:09;4.73;;;4.23;;
74904;SDS011;63465;50.862;6.220;2023-11-18T06:22:35;6.00;;;3.70;;
74904;SDS011;63465;50.862;6.220;2023-11-18T06:25:01;7.63;;;4.10;;
74904;SDS011;63465;50.862;6.220;2023-11-18T06:27:27;5.20;;;3.20;;
74904;SDS011;63465;50.862;6.220;2023-11-18T06:29:52;5.50;;;3.20;;
74904;SDS011;63465;50.862;6.220;2023-11-18T06:32:19;6.37;;;2.70;;
74904;SDS011;63465;50.862;6.220;2023-11-18T06:34:45;10.30;;;3.00;;
74904;SDS011;63465;50.862;6.220;2023-11-18T06:37:10;5.90;;;2.30;;
74904;SDS011;63465;50.862;6.220;2023-11-18T06:39:40;4.33;;;2.40;;
74904;SDS011;63465;50.862;6.220;2023-11-18T06:42:06;5.43;;;2.60;;
74904;SDS011;63465;50.862;6.220;2023-11-18T06:44:36;2.53;;;2.30;;
74904;SDS011;63465;50.862;6.220;2023-11-18T06:47:01;3.33;;;2.43;;
74904;SDS011;63465;50.862;6.220;2023-11-18T06:49:27;3.93;;;2.40;;
74904;SDS011;63465;50.862;6.220;2023-11-18T06:51:54;5.50;;;2.37;;
74904;SDS011;63465;50.862;6.220;2023-11-18T06:54:20;3.03;;;2.37;;
74904;SDS011;63465;50.862;6.220;2023-11-18T06:56:45;5.47;;;2.40;;
74904;SDS011;63465;50.862;6.220;2023-11-18T06:59:11;3.73;;;2.50;;
74904;SDS011;63465;50.862;6.220;2023-11-18T07:01:40;4.23;;;2.20;;
74904;SDS011;63465;50.862;6.220;2023-11-18T07:04:07;4.20;;;2.60;;
74904;SDS011;63465;50.862;6.220;2023-11-18T07:06:36;2.60;;;2.30;;
74904;SDS011;63465;50.862;6.220;2023-11-18T07:09:03;3.40;;;2.50;;
74904;SDS011;63465;50.862;6.220;2023-11-18T07:11:33;2.57;;;1.80;;
74904;SDS011;63465;50.862;6.220;2023-11-18T07:14:00;2.23;;;2.13;;
74904;SDS011;63465;50.862;6.220;2023-11-18T07:16:25;2.10;;;2.00;;
74904;SDS011;63465;50.862;6.220;2023-11-18T07:18:51;2.17;;;2.07;;
74904;SDS011;63465;50.862;6.220;2023-11-18T07:21:17;3.67;;;2.20;;
74904;SDS011;63465;50.862;6.220;2023-11-18T07:23:43;11.40;;;3.80;;
74904;SDS011;63465;50.862;6.220;2023-11-18T07:29:02;6.83;;;4.17;;
74904;SDS011;63465;50.862;6.220;2023-11-18T07:31:27;6.43;;;3.27;;
74904;SDS011;63465;50.862;6.220;2023-11-18T07:33:54;9.43;;;3.20;;
74904;SDS011;63465;50.862;6.220;2023-11-18T07:36:19;10.70;;;4.40;;
74904;SDS011;63465;50.862;6.220;2023-11-18T07:38:46;21.47;;;9.27;;
74904;SDS011;63465;50.862;6.220;2023-11-18T07:41:11;19.73;;;6.17;;
74904;SDS011;63465;50.862;6.220;2023-11-18T07:43:48;9.30;;;3.93;;
74904;SDS011;63465;50.862;6.220;2023-11-18T07:46:15;6.30;;;3.90;;
74904;SDS011;63465;50.862;6.220;2023-11-18T07:48:40;4.60;;;3.67;;
74904;SDS011;63465;50.862;6.220;2023-11-18T07:51:05;5.43;;;3.43;;
74904;SDS011;63465;50.862;6.220;2023-11-18T07:53:32;2.90;;;2.67;;
74904;SDS011;63465;50.862;6.220;2023-11-18T07:55:57;5.40;;;3.10;;
74904;SDS011;63465;50.862;6.220;2023-11-18T07:58:22;2.50;;;2.37;;
74904;SDS011;63465;50.862;6.220;2023-11-18T08:00:48;4.33;;;2.57;;
74904;SDS011;63465;50.862;6.220;2023-11-18T08:03:14;8.40;;;2.83;;
74904;SDS011;63465;50.862;6.220;2023-11-18T08:05:40;5.27;;;3.30;;
74904;SDS011;63465;50.862;6.220;2023-11-18T08:08:09;5.83;;;3.03;;
74904;SDS011;63465;50.862;6.220;2023-11-18T08:10:36;3.60;;;2.73;;
74904;SDS011;63465;50.862;6.220;2023-11-18T08:13:05;11.20;;;2.83;;
74904;SDS011;63465;50.862;6.220;2023-11-18T08:15:32;5.63;;;3.27;;
74904;SDS011;63465;50.862;6.220;2023-11-18T08:17:58;5.17;;;2.87;;
74904;SDS011;63465;50.862;6.220;2023-11-18T08:20:24;3.37;;;3.07;;
74904;SDS011;63465;50.862;6.220;2023-11-18T08:22:50;4.03;;;3.73;;
74904;SDS011;63465;50.862;6.220;2023-11-18T08:25:15;3.20;;;2.40;;
74904;SDS011;63465;50.862;6.220;2023-11-18T08:27:42;5.00;;;2.50;;
74904;SDS011;63465;50.862;6.220;2023-11-18T08:30:10;7.73;;;2.70;;
74904;SDS011;63465;50.862;6.220;2023-11-18T08:32:40;4.70;;;2.80;;
74904;SDS011;63465;50.862;6.220;2023-11-18T08:35:08;7.10;;;2.23;;
74904;SDS011;63465;50.862;6.220;2023-11-18T08:37:35;11.83;;;2.13;;
74904;SDS011;63465;50.862;6.220;2023-11-18T08:40:04;2.37;;;2.17;;
74904;SDS011;63465;50.862;6.220;2023-11-18T08:42:32;7.77;;;2.53;;
74904;SDS011;63465;50.862;6.220;2023-11-18T08:44:58;8.07;;;2.10;;
74904;SDS011;63465;50.862;6.220;2023-11-18T08:47:24;3.23;;;2.20;;
74904;SDS011;63465;50.862;6.220;2023-11-18T08:49:50;3.53;;;1.90;;
74904;SDS011;63465;50.862;6.220;2023-11-18T08:52:15;3.60;;;1.73;;
74904;SDS011;63465;50.862;6.220;2023-11-18T08:54:42;4.93;;;2.57;;
74904;SDS011;63465;50.862;6.220;2023-11-18T08:57:28;9.57;;;2.60;;
74904;SDS011;63465;50.862;6.220;2023-11-18T09:00:13;4.90;;;2.03;;
74904;SDS011;63465;50.862;6.220;2023-11-18T09:03:01;3.67;;;2.10;;
74904;SDS011;63465;50.862;6.220;2023-11-18T09:05:30;2.63;;;2.20;;
74904;SDS011;63465;50.862;6.220;2023-11-18T09:07:57;3.17;;;2.00;;
74904;SDS011;63465;50.862;6.220;2023-11-18T09:10:25;2.60;;;2.30;;
74904;SDS011;63465;50.862;6.220;2023-11-18T09:12:51;3.57;;;2.60;;
74904;SDS011;63465;50.862;6.220;2023-11-18T09:15:17;6.87;;;3.20;;
74904;SDS011;63465;50.862;6.220;2023-11-18T09:17:47;8.30;;;2.03;;
74904;SDS011;63465;50.862;6.220;2023-11-18T09:20:15;5.10;;;2.13;;
74904;SDS011;63465;50.862;6.220;2023-11-18T09:22:47;4.20;;;2.20;;
74904;SDS011;63465;50.862;6.220;2023-11-18T09:25:13;2.10;;;1.80;;
74904;SDS011;63465;50.862;6.220;2023-11-18T09:27:39;1.80;;;1.70;;
74904;SDS011;63465;50.862;6.220;2023-11-18T09:30:05;3.27;;;1.73;;
74904;SDS011;63465;50.862;6.220;2023-11-18T09:32:39;2.13;;;1.93;;
74904;SDS011;63465;50.862;6.220;2023-11-18T09:35:07;6.43;;;2.30;;
74904;SDS011;63465;50.862;6.220;2023-11-18T09:37:34;3.10;;;2.10;;
74904;SDS011;63465;50.862;6.220;2023-11-18T09:40:00;5.07;;;2.30;;
74904;SDS011;63465;50.862;6.220;2023-11-18T09:42:36;3.67;;;2.33;;
74904;SDS011;63465;50.862;6.220;2023-11-18T09:45:02;11.00;;;2.60;;
74904;SDS011;63465;50.862;6.220;2023-11-18T09:47:30;2.87;;;2.10;;
74904;SDS011;63465;50.862;6.220;2023-11-18T09:50:02;2.13;;;1.70;;
74904;SDS011;63465;50.862;6.220;2023-11-18T09:52:31;4.10;;;2.07;;
74904;SDS011;63465;50.862;6.220;2023-11-18T09:55:07;3.23;;;2.03;;
74904;SDS011;63465;50.862;6.220;2023-11-18T09:57:40;2.00;;;1.90;;
74904;SDS011;63465;50.862;6.220;2023-11-18T10:00:10;6.87;;;2.00;;
74904;SDS011;63465;50.862;6.220;2023-11-18T10:02:49;2.80;;;1.90;;
74904;SDS011;63465;50.862;6.220;2023-11-18T10:05:15;4.03;;;1.80;;
74904;SDS011;63465;50.862;6.220;2023-11-18T10:07:45;3.13;;;1.70;;
74904;SDS011;63465;50.862;6.220;2023-11-18T10:10:12;8.00;;;2.07;;
74904;SDS011;63465;50.862;6.220;2023-11-18T10:12:44;4.13;;;1.87;;
74904;SDS011;63465;50.862;6.220;2023-11-18T10:15:14;2.60;;;2.00;;
74904;SDS011;63465;50.862;6.220;2023-11-18T10:17:43;2.20;;;2.10;;
74904;SDS011;63465;50.862;6.220;2023-11-18T10:20:46;8.57;;;2.20;;
74904;SDS011;63465;50.862;6.220;2023-11-18T10:23:16;3.57;;;2.27;;
74904;SDS011;63465;50.862;6.220;2023-11-18T10:30:54;4.33;;;1.87;;
74904;SDS011;63465;50.862;6.220;2023-11-18T10:33:23;2.20;;;1.77;;
74904;SDS011;63465;50.862;6.220;2023-11-18T10:35:55;3.70;;;1.93;;
74904;SDS011;63465;50.862;6.220;2023-11-18T10:38:21;3.13;;;1.77;;
74904;SDS011;63465;50.862;6.220;2023-11-18T10:40:50;2.17;;;1.77;;
74904;SDS011;63465;50.862;6.220;2023-11-18T10:43:18;3.20;;;1.70;;
74904;SDS011;63465;50.862;6.220;2023-11-18T10:45:43;3.30;;;1.50;;
74904;SDS011;63465;50.862;6.220;2023-11-18T10:48:11;7.77;;;1.83;;
74904;SDS011;63465;50.862;6.220;2023-11-18T10:50:41;6.23;;;1.67;;
74904;SDS011;63465;50.862;6.220;2023-11-18T10:53:07;2.40;;;1.47;;
74904;SDS011;63465;50.862;6.220;2023-11-18T10:55:39;5.70;;;1.60;;
74904;SDS011;63465;50.862;6.220;2023-11-18T10:58:07;3.80;;;1.30;;
74904;SDS011;63465;50.862;6.220;2023-11-18T11:00:49;5.30;;;1.97;;
74904;SDS011;63465;50.862;6.220;2023-11-18T11:03:16;8.87;;;1.93;;
74904;SDS011;63465;50.862;6.220;2023-11-18T11:05:43;9.83;;;2.00;;
74904;SDS011;63465;50.862;6.220;2023-11-18T11:08:09;1.90;;;1.53;;
74904;SDS011;63465;50.862;6.220;2023-11-18T11:10:38;2.10;;;1.40;;
74904;SDS011;63465;50.862;6.220;2023-11-18T11:13:10;3.93;;;1.70;;
74904;SDS011;63465;50.862;6.220;2023-11-18T11:15:40;3.63;;;1.90;;
74904;SDS011;63465;50.862;6.220;2023-11-18T11:18:11;1.97;;;1.60;;
74904;SDS011;63465;50.862;6.220;2023-11-18T11:20:47;1.63;;;1.53;;
74904;SDS011;63465;50.862;6.220;2023-11-18T11:23:26;6.67;;;1.70;;
74904;SDS011;63465;50.862;6.220;2023-11-18T11:31:26;4.70;;;2.93;;
74904;SDS011;63465;50.862;6.220;2023-11-18T11:34:04;4.13;;;2.00;;
74904;SDS011;63465;50.862;6.220;2023-11-18T11:36:37;6.70;;;3.70;;
74904;SDS011;63465;50.862;6.220;2023-11-18T11:39:06;5.57;;;3.13;;
74904;SDS011;63465;50.862;6.220;2023-11-18T11:41:39;2.20;;;2.10;;
74904;SDS011;63465;50.862;6.220;2023-11-18T11:44:11;1.27;;;1.03;;
74904;SDS011;63465;50.862;6.220;2023-11-18T11:46:39;4.60;;;1.53;;
74904;SDS011;63465;50.862;6.220;2023-11-18T11:49:07;3.97;;;2.23;;
74904;SDS011;63465;50.862;6.220;2023-11-18T11:54:27;4.67;;;2.10;;
74904;SDS011;63465;50.862;6.220;2023-11-18T11:56:57;2.70;;;2.50;;
74904;SDS011;63465;50.862;6.220;2023-11-18T11:59:35;2.53;;;1.67;;
74904;SDS011;63465;50.862;6.220;2023-11-18T12:02:21;1.90;;;1.80;;
74904;SDS011;63465;50.862;6.220;2023-11-18T12:04:50;1.50;;;1.40;;
74904;SDS011;63465;50.862;6.220;2023-11-18T12:07:19;3.47;;;2.00;;
74904;SDS011;63465;50.862;6.220;2023-11-18T12:09:58;2.03;;;1.80;;
74904;SDS011;63465;50.862;6.220;2023-11-18T12:12:25;3.07;;;1.23;;
74904;SDS011;63465;50.862;6.220;2023-11-18T12:14:52;1.67;;;1.40;;
74904;SDS011;63465;50.862;6.220;2023-11-18T12:18:28;3.13;;;1.70;;
74904;SDS011;63465;50.862;6.220;2023-11-18T12:20:38;3.10;;;2.80;;
74904;SDS011;63465;50.862;6.220;2023-11-18T12:23:12;5.47;;;2.10;;
74904;SDS011;63465;50.862;6.220;2023-11-18T12:25:43;3.43;;;1.70;;
74904;SDS011;63465;50.862;6.220;2023-11-18T12:28:11;2.33;;;1.20;;
74904;SDS011;63465;50.862;6.220;2023-11-18T12:30:40;2.47;;;1.50;;
74904;SDS011;63465;50.862;6.220;2023-11-18T12:33:16;5.03;;;1.80;;
74904;SDS011;63465;50.862;6.220;2023-11-18T12:41:37;5.17;;;3.50;;
74904;SDS011;63465;50.862;6.220;2023-11-18T12:46:54;6.73;;;4.23;;
74904;SDS011;63465;50.862;6.220;2023-11-18T12:49:36;4.13;;;1.63;;
74904;SDS011;63465;50.862;6.220;2023-11-18T12:52:06;2.60;;;1.90;;
74904;SDS011;63465;50.862;6.220;2023-11-18T12:54:33;2.10;;;1.60;;
74904;SDS011;63465;50.862;6.220;2023-11-18T12:57:02;1.30;;;1.30;;
74904;SDS011;63465;50.862;6.220;2023-11-18T12:59:28;1.87;;;1.70;;
74904;SDS011;63465;50.862;6.220;2023-11-18T13:01:55;6.83;;;5.40;;
74904;SDS011;63465;50.862;6.220;2023-11-18T13:04:23;2.27;;;1.50;;
74904;SDS011;63465;50.862;6.220;2023-11-18T13:06:49;2.60;;;2.43;;
74904;SDS011;63465;50.862;6.220;2023-11-18T13:09:16;1.70;;;1.60;;
74904;SDS011;63465;50.862;6.220;2023-11-18T13:11:51;2.80;;;1.73;;
74904;SDS011;63465;50.862;6.220;2023-11-18T13:14:26;4.30;;;2.10;;
74904;SDS011;63465;50.862;6.220;2023-11-18T13:16:55;2.17;;;1.93;;
74904;SDS011;63465;50.862;6.220;2023-11-18T13:19:25;2.37;;;2.17;;
74904;SDS011;63465;50.862;6.220;2023-11-18T13:21:57;1.23;;;1.20;;
74904;SDS011;63465;50.862;6.220;2023-11-18T13:24:36;1.23;;;1.13;;
74904;SDS011;63465;50.862;6.220;2023-11-18T13:27:06;1.33;;;1.30;;
74904;SDS011;63465;50.862;6.220;2023-11-18T13:29:34;1.20;;;1.20;;
74904;SDS011;63465;50.862;6.220;2023-11-18T13:32:01;1.27;;;1.27;;
74904;SDS011;63465;50.862;6.220;2023-11-18T13:34:33;1.10;;;1.10;;
74904;SDS011;63465;50.862;6.220;2023-11-18T13:37:01;2.10;;;1.20;;
74904;SDS011;63465;50.862;6.220;2023-11-18T13:39:28;1.00;;;0.97;;
74904;SDS011;63465;50.862;6.220;2023-11-18T13:41:53;0.60;;;0.60;;
74904;SDS011;63465;50.862;6.220;2023-11-18T13:44:37;0.80;;;0.80;;
74904;SDS011;63465;50.862;6.220;2023-11-18T13:47:09;1.17;;;1.17;;
74904;SDS011;63465;50.862;6.220;2023-11-18T13:49:36;1.10;;;1.10;;
74904;SDS011;63465;50.862;6.220;2023-11-18T13:52:05;0.90;;;0.90;;
74904;SDS011;63465;50.862;6.220;2023-11-18T13:54:36;1.27;;;1.23;;
74904;SDS011;63465;50.862;6.220;2023-11-18T13:57:02;0.80;;;0.80;;
74904;SDS011;63465;50.862;6.220;2023-11-18T13:59:29;1.53;;;0.90;;
74904;SDS011;63465;50.862;6.220;2023-11-18T14:01:55;0.83;;;0.83;;
74904;SDS011;63465;50.862;6.220;2023-11-18T14:04:24;0.63;;;0.63;;
74904;SDS011;63465;50.862;6.220;2023-11-18T14:06:53;0.60;;;0.60;;
74904;SDS011;63465;50.862;6.220;2023-11-18T14:09:22;0.93;;;0.90;;
74904;SDS011;63465;50.862;6.220;2023-11-18T14:11:50;0.90;;;0.90;;
74904;SDS011;63465;50.862;6.220;2023-11-18T14:14:16;0.70;;;0.70;;
74904;SDS011;63465;50.862;6.220;2023-11-18T14:16:42;0.90;;;0.80;;
74904;SDS011;63465;50.862;6.220;2023-11-18T14:19:08;0.80;;;0.80;;
74904;SDS011;63465;50.862;6.220;2023-11-18T14:21:33;0.80;;;0.80;;
74904;SDS011;63465;50.862;6.220;2023-11-18T14:23:58;0.80;;;0.80;;
74904;SDS011;63465;50.862;6.220;2023-11-18T14:26:27;0.70;;;0.70;;
74904;SDS011;63465;50.862;6.220;2023-11-18T14:28:52;0.70;;;0.70;;
74904;SDS011;63465;50.862;6.220;2023-11-18T14:31:18;3.70;;;0.90;;
74904;SDS011;63465;50.862;6.220;2023-11-18T14:33:43;0.80;;;0.80;;
74904;SDS011;63465;50.862;6.220;2023-11-18T14:36:08;0.60;;;0.60;;
74904;SDS011;63465;50.862;6.220;2023-11-18T14:38:34;0.80;;;0.70;;
74904;SDS011;63465;50.862;6.220;2023-11-18T14:40:59;1.00;;;0.80;;
74904;SDS011;63465;50.862;6.220;2023-11-18T14:43:25;0.83;;;0.83;;
74904;SDS011;63465;50.862;6.220;2023-11-18T14:45:50;0.93;;;0.93;;
74904;SDS011;63465;50.862;6.220;2023-11-18T14:48:15;0.83;;;0.83;;
74904;SDS011;63465;50.862;6.220;2023-11-18T14:50:41;1.20;;;1.17;;
74904;SDS011;63465;50.862;6.220;2023-11-18T14:53:07;1.00;;;1.00;;
74904;SDS011;63465;50.862;6.220;2023-11-18T14:55:32;1.10;;;1.10;;
74904;SDS011;63465;50.862;6.220;2023-11-18T14:58:01;1.00;;;1.00;;
74904;SDS011;63465;50.862;6.220;2023-11-18T15:00:29;1.03;;;1.03;;
74904;SDS011;63465;50.862;6.220;2023-11-18T15:02:57;0.67;;;0.67;;
74904;SDS011;63465;50.862;6.220;2023-11-18T15:05:23;0.60;;;0.60;;
74904;SDS011;63465;50.862;6.220;2023-11-18T15:07:49;0.70;;;0.70;;
74904;SDS011;63465;50.862;6.220;2023-11-18T15:10:16;0.60;;;0.60;;
74904;SDS011;63465;50.862;6.220;2023-11-18T15:12:49;0.73;;;0.73;;
74904;SDS011;63465;50.862;6.220;2023-11-18T15:15:22;0.63;;;0.63;;
74904;SDS011;63465;50.862;6.220;2023-11-18T15:17:55;0.73;;;0.60;;